Terminal Aerodrome Forecast
Issued by NWS

Home | Current Version | Previous Version | Text Only | Print | Product List | Glossary Off
Versions: 1 2 3 4 5 6 7 8 9 10 11 12 13 14 15 16 17 18 19 20 21 22 23 24 25 26 27 28 29 30 31 32 33 34 35 36

000
FTUS43 KGRB 231400 AAB
TAFRHI
TAF AMD
KRHI 231417Z 2314/2412 VRB05KT P6SM SCT025 BKN050
      TEMPO 2314/2316 BKN025 BKN060
     FM231700 35005KT P6SM SCT035 SCT070
     FM232300 36005KT P6SM SCT040
     FM240900 00000KT 1/2SM FG SKC=

USA.gov is the U.S. government's official web portal to all federal, state and local government web resources and services.